Copperhill, Tennessee
Current Conditions -  °F | °C
As of 1:35 PM on Sunday 21 Dec 2014 (Local Time) from KRZR Reporting Station
Overcast Overcast  
Wind Chill: 46°   Ceiling: 3800
Heat Index: 46°   Visibility: 10mi
Dew Point: 36°   Wind: 3mph
Humidity: 66%   Direction: 20°NNE
Pressure: 30.15"   Gusts: NA
Location:  34.99°N, 84.37°W
Report Text: KRZR 211835Z AUTO 02003KT 10SM OVC038 08/02 A3015 RMK
Loading
Personal Weather Stations






























Interactive Weather Map New forecast layout! Learn more

10-Day Weather Forecast

Advertisements
Track Severe Weather on mobile